sensor_id;sensor_type;location;lat;lon;timestamp;temperature;humidity
26589;DHT22;14235;48.532;8.722;2023-07-31T00:00:12;16.30;99.90
26589;DHT22;14235;48.532;8.722;2023-07-31T00:02:38;15.80;99.90
26589;DHT22;14235;48.532;8.722;2023-07-31T00:05:04;16.00;99.90
26589;DHT22;14235;48.532;8.722;2023-07-31T00:07:30;15.80;99.90
26589;DHT22;14235;48.532;8.722;2023-07-31T00:09:55;15.90;99.90
26589;DHT22;14235;48.532;8.722;2023-07-31T00:14:48;15.50;99.90
26589;DHT22;14235;48.532;8.722;2023-07-31T00:17:14;15.20;99.90
26589;DHT22;14235;48.532;8.722;2023-07-31T00:19:39;15.30;99.90
26589;DHT22;14235;48.532;8.722;2023-07-31T00:22:05;15.20;99.90
26589;DHT22;14235;48.532;8.722;2023-07-31T00:24:31;15.10;99.90
26589;DHT22;14235;48.532;8.722;2023-07-31T00:26:56;15.80;99.90
26589;DHT22;14235;48.532;8.722;2023-07-31T00:29:22;15.30;99.90
26589;DHT22;14235;48.532;8.722;2023-07-31T00:31:47;15.10;99.90
26589;DHT22;14235;48.532;8.722;2023-07-31T00:36:39;15.00;99.90
26589;DHT22;14235;48.532;8.722;2023-07-31T00:39:04;15.30;99.90
26589;DHT22;14235;48.532;8.722;2023-07-31T00:41:30;15.50;99.90
26589;DHT22;14235;48.532;8.722;2023-07-31T00:43:56;15.60;99.90
26589;DHT22;14235;48.532;8.722;2023-07-31T00:46:21;15.40;99.90
26589;DHT22;14235;48.532;8.722;2023-07-31T00:53:40;14.80;99.90
26589;DHT22;14235;48.532;8.722;2023-07-31T00:56:06;15.20;99.90
26589;DHT22;14235;48.532;8.722;2023-07-31T00:58:31;14.80;99.90
26589;DHT22;14235;48.532;8.722;2023-07-31T01:00:57;15.30;99.90
26589;DHT22;14235;48.532;8.722;2023-07-31T01:03:23;16.60;99.90
26589;DHT22;14235;48.532;8.722;2023-07-31T01:06:02;15.20;99.90
26589;DHT22;14235;48.532;8.722;2023-07-31T01:08:41;14.90;99.90
26589;DHT22;14235;48.532;8.722;2023-07-31T01:13:39;14.90;99.90
26589;DHT22;14235;48.532;8.722;2023-07-31T01:16:04;15.80;99.90
26589;DHT22;14235;48.532;8.722;2023-07-31T01:18:30;15.90;99.90
26589;DHT22;14235;48.532;8.722;2023-07-31T01:24:19;14.80;99.90
26589;DHT22;14235;48.532;8.722;2023-07-31T01:27:03;14.30;99.90
26589;DHT22;14235;48.532;8.722;2023-07-31T01:29:56;14.80;99.90
26589;DHT22;14235;48.532;8.722;2023-07-31T01:32:22;15.50;99.90
26589;DHT22;14235;48.532;8.722;2023-07-31T01:34:49;16.00;99.90
26589;DHT22;14235;48.532;8.722;2023-07-31T01:37:15;15.10;99.90
26589;DHT22;14235;48.532;8.722;2023-07-31T01:39:41;15.70;99.90
26589;DHT22;14235;48.532;8.722;2023-07-31T01:42:06;15.10;99.90
26589;DHT22;14235;48.532;8.722;2023-07-31T01:44:33;14.90;99.90
26589;DHT22;14235;48.532;8.722;2023-07-31T01:46:58;15.40;99.90
26589;DHT22;14235;48.532;8.722;2023-07-31T01:49:25;15.40;99.90
26589;DHT22;14235;48.532;8.722;2023-07-31T01:51:51;15.10;99.90
26589;DHT22;14235;48.532;8.722;2023-07-31T01:54:16;14.90;99.90
26589;DHT22;14235;48.532;8.722;2023-07-31T01:56:42;15.60;99.90
26589;DHT22;14235;48.532;8.722;2023-07-31T01:59:07;14.70;99.90
26589;DHT22;14235;48.532;8.722;2023-07-31T02:01:33;15.00;99.90
26589;DHT22;14235;48.532;8.722;2023-07-31T02:03:59;15.10;99.90
26589;DHT22;14235;48.532;8.722;2023-07-31T02:06:24;15.00;99.90
26589;DHT22;14235;48.532;8.722;2023-07-31T02:08:50;14.60;99.90
26589;DHT22;14235;48.532;8.722;2023-07-31T02:11:16;14.70;99.90
26589;DHT22;14235;48.532;8.722;2023-07-31T02:13:41;15.10;99.90
26589;DHT22;14235;48.532;8.722;2023-07-31T02:16:07;15.70;99.90
26589;DHT22;14235;48.532;8.722;2023-07-31T02:18:32;14.80;99.90
26589;DHT22;14235;48.532;8.722;2023-07-31T02:20:58;14.50;99.90
26589;DHT22;14235;48.532;8.722;2023-07-31T02:23:24;14.80;99.90
26589;DHT22;14235;48.532;8.722;2023-07-31T02:25:49;14.10;99.90
26589;DHT22;14235;48.532;8.722;2023-07-31T02:28:15;15.40;99.90
26589;DHT22;14235;48.532;8.722;2023-07-31T02:30:44;14.60;99.90
26589;DHT22;14235;48.532;8.722;2023-07-31T02:33:10;14.70;99.90
26589;DHT22;14235;48.532;8.722;2023-07-31T02:35:36;14.40;99.90
26589;DHT22;14235;48.532;8.722;2023-07-31T02:38:01;15.30;99.90
26589;DHT22;14235;48.532;8.722;2023-07-31T02:40:27;14.20;99.90
26589;DHT22;14235;48.532;8.722;2023-07-31T02:42:52;14.50;99.90
26589;DHT22;14235;48.532;8.722;2023-07-31T02:45:18;14.30;99.90
26589;DHT22;14235;48.532;8.722;2023-07-31T02:47:44;14.30;99.90
26589;DHT22;14235;48.532;8.722;2023-07-31T02:50:09;14.30;99.90
26589;DHT22;14235;48.532;8.722;2023-07-31T02:52:35;14.30;99.90
26589;DHT22;14235;48.532;8.722;2023-07-31T02:55:01;14.30;99.90
26589;DHT22;14235;48.532;8.722;2023-07-31T02:57:26;15.40;99.90
26589;DHT22;14235;48.532;8.722;2023-07-31T02:59:52;14.50;99.90
26589;DHT22;14235;48.532;8.722;2023-07-31T03:02:18;14.90;99.90
26589;DHT22;14235;48.532;8.722;2023-07-31T03:04:43;15.40;99.90
26589;DHT22;14235;48.532;8.722;2023-07-31T03:07:09;14.50;99.90
26589;DHT22;14235;48.532;8.722;2023-07-31T03:09:34;14.30;99.90
26589;DHT22;14235;48.532;8.722;2023-07-31T03:12:00;15.20;99.90
26589;DHT22;14235;48.532;8.722;2023-07-31T03:14:25;14.00;99.90
26589;DHT22;14235;48.532;8.722;2023-07-31T03:16:54;14.40;99.90
26589;DHT22;14235;48.532;8.722;2023-07-31T03:19:19;15.20;99.90
26589;DHT22;14235;48.532;8.722;2023-07-31T03:21:45;14.50;99.90
26589;DHT22;14235;48.532;8.722;2023-07-31T03:24:11;15.50;99.90
26589;DHT22;14235;48.532;8.722;2023-07-31T03:26:37;13.80;99.90
26589;DHT22;14235;48.532;8.722;2023-07-31T03:29:03;14.10;99.90
26589;DHT22;14235;48.532;8.722;2023-07-31T03:31:29;13.70;99.90
26589;DHT22;14235;48.532;8.722;2023-07-31T03:33:54;13.80;99.90
26589;DHT22;14235;48.532;8.722;2023-07-31T03:36:20;15.00;99.90
26589;DHT22;14235;48.532;8.722;2023-07-31T03:38:46;14.60;99.90
26589;DHT22;14235;48.532;8.722;2023-07-31T03:41:12;15.10;99.90
26589;DHT22;14235;48.532;8.722;2023-07-31T03:43:37;15.30;99.90
26589;DHT22;14235;48.532;8.722;2023-07-31T03:46:03;14.00;99.90
26589;DHT22;14235;48.532;8.722;2023-07-31T03:48:30;14.10;99.90
26589;DHT22;14235;48.532;8.722;2023-07-31T03:50:55;15.10;99.90
26589;DHT22;14235;48.532;8.722;2023-07-31T03:53:21;13.90;99.90
26589;DHT22;14235;48.532;8.722;2023-07-31T03:55:47;14.20;99.90
26589;DHT22;14235;48.532;8.722;2023-07-31T03:58:12;13.70;99.90
26589;DHT22;14235;48.532;8.722;2023-07-31T04:00:40;14.10;99.90
26589;DHT22;14235;48.532;8.722;2023-07-31T04:03:06;13.70;99.90
26589;DHT22;14235;48.532;8.722;2023-07-31T04:05:32;14.00;99.90
26589;DHT22;14235;48.532;8.722;2023-07-31T04:07:58;14.80;99.90
26589;DHT22;14235;48.532;8.722;2023-07-31T04:10:24;14.90;99.90
26589;DHT22;14235;48.532;8.722;2023-07-31T04:12:49;14.20;99.90
26589;DHT22;14235;48.532;8.722;2023-07-31T04:15:15;14.20;99.90
26589;DHT22;14235;48.532;8.722;2023-07-31T04:17:40;14.40;99.90
26589;DHT22;14235;48.532;8.722;2023-07-31T04:20:06;14.30;99.90
26589;DHT22;14235;48.532;8.722;2023-07-31T04:22:32;13.80;99.90
26589;DHT22;14235;48.532;8.722;2023-07-31T04:24:57;13.80;99.90
26589;DHT22;14235;48.532;8.722;2023-07-31T04:27:23;14.70;99.90
26589;DHT22;14235;48.532;8.722;2023-07-31T04:29:49;15.80;99.90
26589;DHT22;14235;48.532;8.722;2023-07-31T04:32:14;14.40;99.90
26589;DHT22;14235;48.532;8.722;2023-07-31T04:34:43;14.30;99.90
26589;DHT22;14235;48.532;8.722;2023-07-31T04:37:09;14.20;99.90
26589;DHT22;14235;48.532;8.722;2023-07-31T04:39:35;13.90;99.90
26589;DHT22;14235;48.532;8.722;2023-07-31T04:42:00;14.20;99.90
26589;DHT22;14235;48.532;8.722;2023-07-31T04:44:26;13.90;99.90
26589;DHT22;14235;48.532;8.722;2023-07-31T04:46:51;14.00;99.90
26589;DHT22;14235;48.532;8.722;2023-07-31T04:49:17;14.20;99.90
26589;DHT22;14235;48.532;8.722;2023-07-31T04:51:42;14.00;99.90
26589;DHT22;14235;48.532;8.722;2023-07-31T04:54:08;14.10;99.90
26589;DHT22;14235;48.532;8.722;2023-07-31T04:56:34;13.90;99.90
26589;DHT22;14235;48.532;8.722;2023-07-31T04:58:59;14.00;99.90
26589;DHT22;14235;48.532;8.722;2023-07-31T05:01:25;14.40;99.90
26589;DHT22;14235;48.532;8.722;2023-07-31T05:03:51;14.00;99.90
26589;DHT22;14235;48.532;8.722;2023-07-31T05:06:16;14.20;99.90
26589;DHT22;14235;48.532;8.722;2023-07-31T05:08:42;14.10;99.90
26589;DHT22;14235;48.532;8.722;2023-07-31T05:11:07;14.90;99.90
26589;DHT22;14235;48.532;8.722;2023-07-31T05:13:33;15.00;99.90
26589;DHT22;14235;48.532;8.722;2023-07-31T05:15:58;14.90;99.90
26589;DHT22;14235;48.532;8.722;2023-07-31T05:18:24;14.70;99.90
26589;DHT22;14235;48.532;8.722;2023-07-31T05:20:50;14.40;99.90
26589;DHT22;14235;48.532;8.722;2023-07-31T05:23:15;15.40;99.90
26589;DHT22;14235;48.532;8.722;2023-07-31T05:25:41;15.00;99.90
26589;DHT22;14235;48.532;8.722;2023-07-31T05:28:06;15.60;99.90
26589;DHT22;14235;48.532;8.722;2023-07-31T05:30:32;14.70;99.90
26589;DHT22;14235;48.532;8.722;2023-07-31T05:32:57;16.70;99.90
26589;DHT22;14235;48.532;8.722;2023-07-31T05:35:23;15.10;99.90
26589;DHT22;14235;48.532;8.722;2023-07-31T05:37:48;14.80;99.90
26589;DHT22;14235;48.532;8.722;2023-07-31T05:40:14;15.20;99.90
26589;DHT22;14235;48.532;8.722;2023-07-31T05:42:40;15.10;99.90
26589;DHT22;14235;48.532;8.722;2023-07-31T05:45:07;15.20;99.90
26589;DHT22;14235;48.532;8.722;2023-07-31T05:47:33;15.20;99.90
26589;DHT22;14235;48.532;8.722;2023-07-31T05:49:58;15.30;99.90
26589;DHT22;14235;48.532;8.722;2023-07-31T05:52:24;15.30;99.90
26589;DHT22;14235;48.532;8.722;2023-07-31T05:54:49;15.50;99.90
26589;DHT22;14235;48.532;8.722;2023-07-31T05:57:15;15.40;99.90
26589;DHT22;14235;48.532;8.722;2023-07-31T05:59:41;16.40;99.90
26589;DHT22;14235;48.532;8.722;2023-07-31T06:02:07;16.60;99.90
26589;DHT22;14235;48.532;8.722;2023-07-31T06:04:32;16.30;99.90
26589;DHT22;14235;48.532;8.722;2023-07-31T06:06:58;15.70;99.90
26589;DHT22;14235;48.532;8.722;2023-07-31T06:09:23;16.00;99.90
26589;DHT22;14235;48.532;8.722;2023-07-31T06:11:50;15.70;99.90
26589;DHT22;14235;48.532;8.722;2023-07-31T06:14:16;16.10;99.90
26589;DHT22;14235;48.532;8.722;2023-07-31T06:16:41;16.10;99.90
26589;DHT22;14235;48.532;8.722;2023-07-31T06:19:07;16.30;99.90
26589;DHT22;14235;48.532;8.722;2023-07-31T06:21:33;16.40;99.90
26589;DHT22;14235;48.532;8.722;2023-07-31T06:23:59;16.40;99.90
26589;DHT22;14235;48.532;8.722;2023-07-31T06:26:24;16.60;99.90
26589;DHT22;14235;48.532;8.722;2023-07-31T06:28:50;16.60;99.90
26589;DHT22;14235;48.532;8.722;2023-07-31T06:31:15;16.70;99.90
26589;DHT22;14235;48.532;8.722;2023-07-31T06:33:43;16.90;99.90
26589;DHT22;14235;48.532;8.722;2023-07-31T06:36:09;16.90;99.90
26589;DHT22;14235;48.532;8.722;2023-07-31T06:38:34;16.90;99.90
26589;DHT22;14235;48.532;8.722;2023-07-31T06:41:00;17.10;99.90
26589;DHT22;14235;48.532;8.722;2023-07-31T06:43:25;17.10;99.90
26589;DHT22;14235;48.532;8.722;2023-07-31T06:45:51;17.10;99.90
26589;DHT22;14235;48.532;8.722;2023-07-31T06:48:16;17.50;99.90
26589;DHT22;14235;48.532;8.722;2023-07-31T06:50:42;17.50;99.90
26589;DHT22;14235;48.532;8.722;2023-07-31T06:53:08;17.40;99.90
26589;DHT22;14235;48.532;8.722;2023-07-31T06:55:33;17.50;99.90
26589;DHT22;14235;48.532;8.722;2023-07-31T06:57:59;17.00;99.90
26589;DHT22;14235;48.532;8.722;2023-07-31T07:00:24;17.30;99.90
26589;DHT22;14235;48.532;8.722;2023-07-31T07:02:50;17.40;99.90
26589;DHT22;14235;48.532;8.722;2023-07-31T07:05:16;18.00;99.90
26589;DHT22;14235;48.532;8.722;2023-07-31T07:07:43;17.50;99.90
26589;DHT22;14235;48.532;8.722;2023-07-31T07:10:09;17.40;99.90
26589;DHT22;14235;48.532;8.722;2023-07-31T07:12:35;17.20;99.90
26589;DHT22;14235;48.532;8.722;2023-07-31T07:15:01;17.70;99.90
26589;DHT22;14235;48.532;8.722;2023-07-31T07:17:28;17.30;99.90
26589;DHT22;14235;48.532;8.722;2023-07-31T07:19:56;17.70;99.90
26589;DHT22;14235;48.532;8.722;2023-07-31T07:22:22;17.50;99.90
26589;DHT22;14235;48.532;8.722;2023-07-31T07:24:48;17.50;99.90
26589;DHT22;14235;48.532;8.722;2023-07-31T07:27:13;17.90;99.90
26589;DHT22;14235;48.532;8.722;2023-07-31T07:29:40;17.80;99.90
26589;DHT22;14235;48.532;8.722;2023-07-31T07:32:06;17.70;99.90
26589;DHT22;14235;48.532;8.722;2023-07-31T07:34:31;17.70;99.90
26589;DHT22;14235;48.532;8.722;2023-07-31T07:36:57;19.00;99.90
26589;DHT22;14235;48.532;8.722;2023-07-31T07:39:22;18.40;99.90
26589;DHT22;14235;48.532;8.722;2023-07-31T07:41:48;18.10;99.90
26589;DHT22;14235;48.532;8.722;2023-07-31T07:44:14;18.10;99.90
26589;DHT22;14235;48.532;8.722;2023-07-31T07:46:40;18.30;99.90
26589;DHT22;14235;48.532;8.722;2023-07-31T07:49:06;18.10;99.90
26589;DHT22;14235;48.532;8.722;2023-07-31T07:51:31;18.60;99.90
26589;DHT22;14235;48.532;8.722;2023-07-31T07:54:00;18.20;99.90
26589;DHT22;14235;48.532;8.722;2023-07-31T07:56:26;18.50;99.90
26589;DHT22;14235;48.532;8.722;2023-07-31T07:58:53;18.50;99.90
26589;DHT22;14235;48.532;8.722;2023-07-31T08:01:19;18.50;99.90
26589;DHT22;14235;48.532;8.722;2023-07-31T08:03:45;18.60;99.90
26589;DHT22;14235;48.532;8.722;2023-07-31T08:06:10;18.60;99.90
26589;DHT22;14235;48.532;8.722;2023-07-31T08:08:36;18.80;99.90
26589;DHT22;14235;48.532;8.722;2023-07-31T08:11:02;19.10;99.90
26589;DHT22;14235;48.532;8.722;2023-07-31T08:13:28;18.90;99.90
26589;DHT22;14235;48.532;8.722;2023-07-31T08:15:54;19.20;99.90
26589;DHT22;14235;48.532;8.722;2023-07-31T08:18:19;19.10;99.90
26589;DHT22;14235;48.532;8.722;2023-07-31T08:20:45;19.20;99.90
26589;DHT22;14235;48.532;8.722;2023-07-31T08:23:11;19.20;99.90
26589;DHT22;14235;48.532;8.722;2023-07-31T08:25:37;18.90;99.90
26589;DHT22;14235;48.532;8.722;2023-07-31T08:28:06;19.50;99.90
26589;DHT22;14235;48.532;8.722;2023-07-31T08:30:32;19.30;99.90
26589;DHT22;14235;48.532;8.722;2023-07-31T08:32:59;19.20;99.90
26589;DHT22;14235;48.532;8.722;2023-07-31T08:35:26;19.10;99.90
26589;DHT22;14235;48.532;8.722;2023-07-31T08:37:51;19.20;99.90
26589;DHT22;14235;48.532;8.722;2023-07-31T08:40:17;19.50;99.90
26589;DHT22;14235;48.532;8.722;2023-07-31T08:42:44;19.10;99.90
26589;DHT22;14235;48.532;8.722;2023-07-31T08:45:14;19.70;99.90
26589;DHT22;14235;48.532;8.722;2023-07-31T08:47:41;19.50;99.90
26589;DHT22;14235;48.532;8.722;2023-07-31T08:50:08;19.60;99.90
26589;DHT22;14235;48.532;8.722;2023-07-31T08:52:33;19.20;99.90
26589;DHT22;14235;48.532;8.722;2023-07-31T08:54:59;19.60;99.90
26589;DHT22;14235;48.532;8.722;2023-07-31T08:57:25;19.40;99.90
26589;DHT22;14235;48.532;8.722;2023-07-31T08:59:51;19.60;99.90
26589;DHT22;14235;48.532;8.722;2023-07-31T09:02:19;19.50;99.90
26589;DHT22;14235;48.532;8.722;2023-07-31T09:04:44;19.60;99.90
26589;DHT22;14235;48.532;8.722;2023-07-31T09:07:11;20.00;99.90
26589;DHT22;14235;48.532;8.722;2023-07-31T09:09:38;19.70;99.90
26589;DHT22;14235;48.532;8.722;2023-07-31T09:12:04;20.00;99.90
26589;DHT22;14235;48.532;8.722;2023-07-31T09:14:30;20.10;99.90
26589;DHT22;14235;48.532;8.722;2023-07-31T09:16:57;20.10;99.90
26589;DHT22;14235;48.532;8.722;2023-07-31T09:19:35;19.90;99.90
26589;DHT22;14235;48.532;8.722;2023-07-31T09:22:05;20.10;99.90
26589;DHT22;14235;48.532;8.722;2023-07-31T09:24:32;20.20;99.90
26589;DHT22;14235;48.532;8.722;2023-07-31T09:26:59;20.30;99.90
26589;DHT22;14235;48.532;8.722;2023-07-31T09:29:26;20.50;99.90
26589;DHT22;14235;48.532;8.722;2023-07-31T09:31:53;20.00;99.90
26589;DHT22;14235;48.532;8.722;2023-07-31T09:34:19;20.40;99.90
26589;DHT22;14235;48.532;8.722;2023-07-31T09:36:49;20.40;99.90
26589;DHT22;14235;48.532;8.722;2023-07-31T09:39:17;20.50;99.90
26589;DHT22;14235;48.532;8.722;2023-07-31T09:41:47;20.50;99.90
26589;DHT22;14235;48.532;8.722;2023-07-31T09:44:13;20.60;99.90
26589;DHT22;14235;48.532;8.722;2023-07-31T09:46:39;20.60;99.90
26589;DHT22;14235;48.532;8.722;2023-07-31T09:49:11;20.60;99.70
26589;DHT22;14235;48.532;8.722;2023-07-31T09:51:42;20.40;99.90
26589;DHT22;14235;48.532;8.722;2023-07-31T09:54:12;20.40;99.90
26589;DHT22;14235;48.532;8.722;2023-07-31T09:56:45;20.40;99.90
26589;DHT22;14235;48.532;8.722;2023-07-31T09:59:12;20.40;99.90
26589;DHT22;14235;48.532;8.722;2023-07-31T10:01:40;20.40;99.90
26589;DHT22;14235;48.532;8.722;2023-07-31T10:04:08;20.50;99.60
26589;DHT22;14235;48.532;8.722;2023-07-31T10:06:35;20.60;99.70
26589;DHT22;14235;48.532;8.722;2023-07-31T10:09:03;20.80;99.60
26589;DHT22;14235;48.532;8.722;2023-07-31T10:11:33;20.90;99.60
26589;DHT22;14235;48.532;8.722;2023-07-31T10:14:04;20.70;99.00
26589;DHT22;14235;48.532;8.722;2023-07-31T10:16:31;20.80;99.40
26589;DHT22;14235;48.532;8.722;2023-07-31T10:18:57;20.90;99.70
26589;DHT22;14235;48.532;8.722;2023-07-31T10:21:24;21.00;98.60
26589;DHT22;14235;48.532;8.722;2023-07-31T10:23:50;21.30;98.80
26589;DHT22;14235;48.532;8.722;2023-07-31T10:26:17;21.10;98.90
26589;DHT22;14235;48.532;8.722;2023-07-31T10:28:45;21.20;98.60
26589;DHT22;14235;48.532;8.722;2023-07-31T10:31:12;21.10;98.60
26589;DHT22;14235;48.532;8.722;2023-07-31T10:33:39;21.00;98.30
26589;DHT22;14235;48.532;8.722;2023-07-31T10:36:17;21.00;98.60
26589;DHT22;14235;48.532;8.722;2023-07-31T10:38:43;21.00;98.30
26589;DHT22;14235;48.532;8.722;2023-07-31T10:41:09;21.00;98.70
26589;DHT22;14235;48.532;8.722;2023-07-31T10:43:37;21.10;98.10
26589;DHT22;14235;48.532;8.722;2023-07-31T10:46:12;21.20;98.00
26589;DHT22;14235;48.532;8.722;2023-07-31T10:48:39;21.10;98.80
26589;DHT22;14235;48.532;8.722;2023-07-31T10:51:11;21.00;98.10
26589;DHT22;14235;48.532;8.722;2023-07-31T10:53:38;21.20;98.40
26589;DHT22;14235;48.532;8.722;2023-07-31T10:56:09;21.20;98.30
26589;DHT22;14235;48.532;8.722;2023-07-31T10:58:36;21.30;97.40
26589;DHT22;14235;48.532;8.722;2023-07-31T11:01:03;21.50;98.00
26589;DHT22;14235;48.532;8.722;2023-07-31T11:03:49;21.60;97.80
26589;DHT22;14235;48.532;8.722;2023-07-31T11:06:18;21.70;97.30
26589;DHT22;14235;48.532;8.722;2023-07-31T11:08:47;21.80;96.90
26589;DHT22;14235;48.532;8.722;2023-07-31T11:11:18;21.70;96.90
26589;DHT22;14235;48.532;8.722;2023-07-31T11:13:52;21.90;97.10
26589;DHT22;14235;48.532;8.722;2023-07-31T11:16:22;21.90;96.40
26589;DHT22;14235;48.532;8.722;2023-07-31T11:18:49;21.90;96.00
26589;DHT22;14235;48.532;8.722;2023-07-31T11:21:18;21.90;96.40
26589;DHT22;14235;48.532;8.722;2023-07-31T11:23:48;22.00;96.60
26589;DHT22;14235;48.532;8.722;2023-07-31T11:26:15;21.90;96.10
26589;DHT22;14235;48.532;8.722;2023-07-31T11:28:41;22.00;96.60
26589;DHT22;14235;48.532;8.722;2023-07-31T11:31:10;22.00;96.10
26589;DHT22;14235;48.532;8.722;2023-07-31T11:33:36;21.90;96.40
26589;DHT22;14235;48.532;8.722;2023-07-31T11:36:02;21.90;96.50
26589;DHT22;14235;48.532;8.722;2023-07-31T11:38:29;21.70;96.70
26589;DHT22;14235;48.532;8.722;2023-07-31T11:41:00;21.80;97.00
26589;DHT22;14235;48.532;8.722;2023-07-31T11:43:26;21.70;96.80
26589;DHT22;14235;48.532;8.722;2023-07-31T11:45:57;21.60;97.80
26589;DHT22;14235;48.532;8.722;2023-07-31T11:48:24;21.70;97.90
26589;DHT22;14235;48.532;8.722;2023-07-31T11:50:53;21.60;98.60
26589;DHT22;14235;48.532;8.722;2023-07-31T11:53:26;21.80;99.40
26589;DHT22;14235;48.532;8.722;2023-07-31T11:55:54;21.80;99.90
26589;DHT22;14235;48.532;8.722;2023-07-31T11:58:21;21.70;99.90
26589;DHT22;14235;48.532;8.722;2023-07-31T12:00:47;21.80;99.90
26589;DHT22;14235;48.532;8.722;2023-07-31T12:03:13;21.90;99.90
26589;DHT22;14235;48.532;8.722;2023-07-31T12:05:39;22.10;99.90
26589;DHT22;14235;48.532;8.722;2023-07-31T12:08:11;22.20;99.90
26589;DHT22;14235;48.532;8.722;2023-07-31T12:10:38;22.10;99.90
26589;DHT22;14235;48.532;8.722;2023-07-31T12:13:07;22.20;99.90
26589;DHT22;14235;48.532;8.722;2023-07-31T12:15:35;22.20;99.90
26589;DHT22;14235;48.532;8.722;2023-07-31T12:18:04;22.30;99.90
26589;DHT22;14235;48.532;8.722;2023-07-31T12:20:30;22.20;99.90
26589;DHT22;14235;48.532;8.722;2023-07-31T12:22:56;22.30;99.90
26589;DHT22;14235;48.532;8.722;2023-07-31T12:25:28;22.50;99.90
26589;DHT22;14235;48.532;8.722;2023-07-31T12:27:53;22.60;99.90
26589;DHT22;14235;48.532;8.722;2023-07-31T12:30:31;22.70;99.90
26589;DHT22;14235;48.532;8.722;2023-07-31T12:32:57;22.80;99.90
26589;DHT22;14235;48.532;8.722;2023-07-31T12:35:23;23.00;99.90
26589;DHT22;14235;48.532;8.722;2023-07-31T12:37:48;22.90;99.90
26589;DHT22;14235;48.532;8.722;2023-07-31T12:40:14;23.20;99.90
26589;DHT22;14235;48.532;8.722;2023-07-31T12:42:41;23.10;99.90
26589;DHT22;14235;48.532;8.722;2023-07-31T12:45:07;23.10;99.90
26589;DHT22;14235;48.532;8.722;2023-07-31T12:47:33;23.10;99.90
26589;DHT22;14235;48.532;8.722;2023-07-31T12:49:58;23.20;99.90
26589;DHT22;14235;48.532;8.722;2023-07-31T12:52:24;23.20;99.70
26589;DHT22;14235;48.532;8.722;2023-07-31T12:54:50;23.10;99.80
26589;DHT22;14235;48.532;8.722;2023-07-31T12:57:15;23.10;98.70
26589;DHT22;14235;48.532;8.722;2023-07-31T12:59:41;23.00;99.10
26589;DHT22;14235;48.532;8.722;2023-07-31T13:02:06;23.00;98.30
26589;DHT22;14235;48.532;8.722;2023-07-31T13:04:32;22.90;97.90
26589;DHT22;14235;48.532;8.722;2023-07-31T13:06:57;22.80;99.10
26589;DHT22;14235;48.532;8.722;2023-07-31T13:09:23;22.70;98.20
26589;DHT22;14235;48.532;8.722;2023-07-31T13:11:49;22.50;98.40
26589;DHT22;14235;48.532;8.722;2023-07-31T13:14:14;22.50;98.60
26589;DHT22;14235;48.532;8.722;2023-07-31T13:16:40;22.50;97.80
26589;DHT22;14235;48.532;8.722;2023-07-31T13:19:05;22.60;97.90
26589;DHT22;14235;48.532;8.722;2023-07-31T13:21:34;22.60;98.70
26589;DHT22;14235;48.532;8.722;2023-07-31T13:24:02;22.90;98.50
26589;DHT22;14235;48.532;8.722;2023-07-31T13:26:27;22.60;98.30
26589;DHT22;14235;48.532;8.722;2023-07-31T13:28:53;22.50;99.00
26589;DHT22;14235;48.532;8.722;2023-07-31T13:31:19;22.50;99.90
26589;DHT22;14235;48.532;8.722;2023-07-31T13:33:44;22.30;99.90
26589;DHT22;14235;48.532;8.722;2023-07-31T13:36:10;22.50;99.90
26589;DHT22;14235;48.532;8.722;2023-07-31T13:38:36;22.80;99.90
26589;DHT22;14235;48.532;8.722;2023-07-31T13:41:01;22.70;99.90
26589;DHT22;14235;48.532;8.722;2023-07-31T13:43:27;22.30;99.70
26589;DHT22;14235;48.532;8.722;2023-07-31T13:45:53;22.40;99.60
26589;DHT22;14235;48.532;8.722;2023-07-31T13:48:18;22.50;99.90
26589;DHT22;14235;48.532;8.722;2023-07-31T13:50:44;22.80;99.30
26589;DHT22;14235;48.532;8.722;2023-07-31T13:53:09;22.70;98.50
26589;DHT22;14235;48.532;8.722;2023-07-31T13:55:35;22.70;98.80
26589;DHT22;14235;48.532;8.722;2023-07-31T13:58:00;22.80;98.20
26589;DHT22;14235;48.532;8.722;2023-07-31T14:00:26;22.90;98.30
26589;DHT22;14235;48.532;8.722;2023-07-31T14:02:54;23.10;98.20
26589;DHT22;14235;48.532;8.722;2023-07-31T14:05:19;23.40;99.10
26589;DHT22;14235;48.532;8.722;2023-07-31T14:07:45;23.60;97.80
26589;DHT22;14235;48.532;8.722;2023-07-31T14:10:10;23.70;97.60
26589;DHT22;14235;48.532;8.722;2023-07-31T14:12:36;23.80;98.30
26589;DHT22;14235;48.532;8.722;2023-07-31T14:15:02;23.80;99.20
26589;DHT22;14235;48.532;8.722;2023-07-31T14:17:28;23.80;97.90
26589;DHT22;14235;48.532;8.722;2023-07-31T14:19:53;24.80;99.20
26589;DHT22;14235;48.532;8.722;2023-07-31T14:22:29;23.90;99.30
26589;DHT22;14235;48.532;8.722;2023-07-31T14:24:55;23.80;99.10
26589;DHT22;14235;48.532;8.722;2023-07-31T14:27:21;23.70;98.70
26589;DHT22;14235;48.532;8.722;2023-07-31T14:29:46;23.30;98.90
26589;DHT22;14235;48.532;8.722;2023-07-31T14:32:12;23.20;99.10
26589;DHT22;14235;48.532;8.722;2023-07-31T14:34:37;23.20;98.70
26589;DHT22;14235;48.532;8.722;2023-07-31T14:37:03;23.20;98.90
26589;DHT22;14235;48.532;8.722;2023-07-31T14:39:29;23.20;99.20
26589;DHT22;14235;48.532;8.722;2023-07-31T14:41:54;23.10;98.00
26589;DHT22;14235;48.532;8.722;2023-07-31T14:44:20;23.00;99.10
26589;DHT22;14235;48.532;8.722;2023-07-31T14:46:45;22.80;98.60
26589;DHT22;14235;48.532;8.722;2023-07-31T14:49:11;22.90;98.90
26589;DHT22;14235;48.532;8.722;2023-07-31T14:51:37;22.90;98.40
26589;DHT22;14235;48.532;8.722;2023-07-31T14:54:03;22.90;98.50
26589;DHT22;14235;48.532;8.722;2023-07-31T14:56:28;22.90;98.70
26589;DHT22;14235;48.532;8.722;2023-07-31T14:58:54;23.00;98.30
26589;DHT22;14235;48.532;8.722;2023-07-31T15:01:19;23.00;98.10
26589;DHT22;14235;48.532;8.722;2023-07-31T15:03:45;23.00;98.00
26589;DHT22;14235;48.532;8.722;2023-07-31T15:06:10;23.20;98.00
26589;DHT22;14235;48.532;8.722;2023-07-31T15:08:38;23.30;97.60
26589;DHT22;14235;48.532;8.722;2023-07-31T15:11:05;23.40;97.80
26589;DHT22;14235;48.532;8.722;2023-07-31T15:13:30;23.40;98.00
26589;DHT22;14235;48.532;8.722;2023-07-31T15:15:56;23.40;97.90
26589;DHT22;14235;48.532;8.722;2023-07-31T15:18:23;23.50;98.40
26589;DHT22;14235;48.532;8.722;2023-07-31T15:20:49;23.50;98.40
26589;DHT22;14235;48.532;8.722;2023-07-31T15:23:14;23.30;97.90
26589;DHT22;14235;48.532;8.722;2023-07-31T15:25:40;23.40;98.20
26589;DHT22;14235;48.532;8.722;2023-07-31T15:28:05;23.70;98.20
26589;DHT22;14235;48.532;8.722;2023-07-31T15:30:32;23.70;98.00
26589;DHT22;14235;48.532;8.722;2023-07-31T15:32:59;23.80;97.00
26589;DHT22;14235;48.532;8.722;2023-07-31T15:35:24;23.90;97.30
26589;DHT22;14235;48.532;8.722;2023-07-31T15:37:50;23.80;97.30
26589;DHT22;14235;48.532;8.722;2023-07-31T15:40:15;23.50;97.40